sensor_id;sensor_type;location;lat;lon;timestamp;P1;durP1;ratioP1;P2;durP2;ratioP2
35977;SDS011;22056;0.000;0.000;2022-12-18T00:00:45;1.40;;;1.20;;
35977;SDS011;22056;0.000;0.000;2022-12-18T00:03:15;2.17;;;1.60;;
35977;SDS011;22056;0.000;0.000;2022-12-18T00:05:48;1.10;;;0.95;;
35977;SDS011;22056;0.000;0.000;2022-12-18T00:08:14;1.42;;;1.10;;
35977;SDS011;22056;0.000;0.000;2022-12-18T00:10:41;1.30;;;1.10;;
35977;SDS011;22056;0.000;0.000;2022-12-18T00:13:07;1.33;;;1.20;;
35977;SDS011;22056;0.000;0.000;2022-12-18T00:15:36;1.40;;;1.00;;
35977;SDS011;22056;0.000;0.000;2022-12-18T00:18:03;1.50;;;1.20;;
35977;SDS011;22056;0.000;0.000;2022-12-18T00:20:30;1.40;;;1.30;;
35977;SDS011;22056;0.000;0.000;2022-12-18T00:22:56;1.30;;;1.05;;
35977;SDS011;22056;0.000;0.000;2022-12-18T00:25:22;1.27;;;1.15;;
35977;SDS011;22056;0.000;0.000;2022-12-18T00:27:49;1.23;;;1.13;;
35977;SDS011;22056;0.000;0.000;2022-12-18T00:30:15;1.08;;;0.98;;
35977;SDS011;22056;0.000;0.000;2022-12-18T00:32:42;1.48;;;1.27;;
35977;SDS011;22056;0.000;0.000;2022-12-18T00:35:08;1.20;;;1.10;;
35977;SDS011;22056;0.000;0.000;2022-12-18T00:37:34;1.50;;;1.23;;
35977;SDS011;22056;0.000;0.000;2022-12-18T00:40:01;1.77;;;1.00;;
35977;SDS011;22056;0.000;0.000;2022-12-18T00:42:27;1.45;;;1.23;;
35977;SDS011;22056;0.000;0.000;2022-12-18T00:45:12;1.50;;;1.20;;
35977;SDS011;22056;0.000;0.000;2022-12-18T00:47:39;1.65;;;1.20;;
35977;SDS011;22056;0.000;0.000;2022-12-18T00:50:05;1.10;;;1.00;;
35977;SDS011;22056;0.000;0.000;2022-12-18T00:52:32;1.25;;;1.10;;
35977;SDS011;22056;0.000;0.000;2022-12-18T00:54:58;0.93;;;0.93;;
35977;SDS011;22056;0.000;0.000;2022-12-18T00:57:24;1.30;;;1.10;;
35977;SDS011;22056;0.000;0.000;2022-12-18T00:59:50;1.25;;;1.15;;
35977;SDS011;22056;0.000;0.000;2022-12-18T01:02:17;1.48;;;1.27;;
35977;SDS011;22056;0.000;0.000;2022-12-18T01:04:43;1.40;;;1.30;;
35977;SDS011;22056;0.000;0.000;2022-12-18T01:07:09;1.15;;;1.00;;
35977;SDS011;22056;0.000;0.000;2022-12-18T01:09:35;1.20;;;1.10;;
35977;SDS011;22056;0.000;0.000;2022-12-18T01:12:01;1.15;;;1.00;;
35977;SDS011;22056;0.000;0.000;2022-12-18T01:14:28;1.70;;;1.60;;
35977;SDS011;22056;0.000;0.000;2022-12-18T01:16:54;1.23;;;1.10;;
35977;SDS011;22056;0.000;0.000;2022-12-18T01:19:20;0.98;;;0.90;;
35977;SDS011;22056;0.000;0.000;2022-12-18T01:21:47;1.35;;;1.25;;
35977;SDS011;22056;0.000;0.000;2022-12-18T01:24:13;1.00;;;0.90;;
35977;SDS011;22056;0.000;0.000;2022-12-18T01:26:39;1.15;;;1.05;;
35977;SDS011;22056;0.000;0.000;2022-12-18T01:29:05;1.10;;;1.00;;
35977;SDS011;22056;0.000;0.000;2022-12-18T01:31:32;1.17;;;1.08;;
35977;SDS011;22056;0.000;0.000;2022-12-18T01:34:02;1.05;;;0.95;;
35977;SDS011;22056;0.000;0.000;2022-12-18T01:36:29;1.20;;;1.00;;
35977;SDS011;22056;0.000;0.000;2022-12-18T01:38:56;1.10;;;1.00;;
35977;SDS011;22056;0.000;0.000;2022-12-18T01:41:23;1.00;;;0.90;;
35977;SDS011;22056;0.000;0.000;2022-12-18T01:43:57;1.15;;;1.05;;
35977;SDS011;22056;0.000;0.000;2022-12-18T01:46:23;1.25;;;1.02;;
35977;SDS011;22056;0.000;0.000;2022-12-18T01:48:52;1.20;;;1.10;;
35977;SDS011;22056;0.000;0.000;2022-12-18T01:51:19;0.98;;;0.90;;
35977;SDS011;22056;0.000;0.000;2022-12-18T01:53:45;1.27;;;1.00;;
35977;SDS011;22056;0.000;0.000;2022-12-18T01:56:16;1.17;;;1.00;;
35977;SDS011;22056;0.000;0.000;2022-12-18T01:59:04;1.20;;;1.00;;
35977;SDS011;22056;0.000;0.000;2022-12-18T02:01:32;0.98;;;0.88;;
35977;SDS011;22056;0.000;0.000;2022-12-18T02:09:36;1.10;;;1.00;;
35977;SDS011;22056;0.000;0.000;2022-12-18T02:14:40;1.17;;;0.93;;
35977;SDS011;22056;0.000;0.000;2022-12-18T02:17:15;1.00;;;0.90;;
35977;SDS011;22056;0.000;0.000;2022-12-18T02:19:45;1.10;;;1.00;;
35977;SDS011;22056;0.000;0.000;2022-12-18T02:22:20;0.88;;;0.80;;
35977;SDS011;22056;0.000;0.000;2022-12-18T02:25:05;1.20;;;1.05;;
35977;SDS011;22056;0.000;0.000;2022-12-18T02:27:32;1.15;;;1.00;;
35977;SDS011;22056;0.000;0.000;2022-12-18T02:30:00;1.08;;;0.90;;
35977;SDS011;22056;0.000;0.000;2022-12-18T02:32:28;1.00;;;0.90;;
35977;SDS011;22056;0.000;0.000;2022-12-18T02:34:56;1.38;;;1.00;;
35977;SDS011;22056;0.000;0.000;2022-12-18T02:37:23;0.82;;;0.75;;
35977;SDS011;22056;0.000;0.000;2022-12-18T02:39:51;1.08;;;0.98;;
35977;SDS011;22056;0.000;0.000;2022-12-18T02:42:18;1.25;;;0.90;;
35977;SDS011;22056;0.000;0.000;2022-12-18T02:44:46;1.10;;;1.00;;
35977;SDS011;22056;0.000;0.000;2022-12-18T02:47:13;1.17;;;1.00;;
35977;SDS011;22056;0.000;0.000;2022-12-18T02:52:25;1.27;;;1.00;;
35977;SDS011;22056;0.000;0.000;2022-12-18T02:54:56;1.25;;;0.85;;
35977;SDS011;22056;0.000;0.000;2022-12-18T03:00:11;1.10;;;1.00;;
35977;SDS011;22056;0.000;0.000;2022-12-18T03:02:39;0.80;;;0.80;;
35977;SDS011;22056;0.000;0.000;2022-12-18T03:05:10;1.88;;;1.33;;
35977;SDS011;22056;0.000;0.000;2022-12-18T03:07:40;1.02;;;0.93;;
35977;SDS011;22056;0.000;0.000;2022-12-18T03:10:07;1.15;;;0.90;;
35977;SDS011;22056;0.000;0.000;2022-12-18T03:12:43;1.20;;;1.00;;
35977;SDS011;22056;0.000;0.000;2022-12-18T03:15:15;0.80;;;0.80;;
35977;SDS011;22056;0.000;0.000;2022-12-18T03:17:44;1.00;;;0.90;;
35977;SDS011;22056;0.000;0.000;2022-12-18T03:20:15;0.80;;;0.80;;
35977;SDS011;22056;0.000;0.000;2022-12-18T03:22:42;1.05;;;0.85;;
35977;SDS011;22056;0.000;0.000;2022-12-18T03:25:11;1.00;;;0.90;;
35977;SDS011;22056;0.000;0.000;2022-12-18T03:27:40;0.90;;;0.80;;
35977;SDS011;22056;0.000;0.000;2022-12-18T03:30:09;0.73;;;0.73;;
35977;SDS011;22056;0.000;0.000;2022-12-18T03:35:40;1.20;;;0.82;;
35977;SDS011;22056;0.000;0.000;2022-12-18T03:38:07;1.35;;;1.00;;
35977;SDS011;22056;0.000;0.000;2022-12-18T03:40:50;1.02;;;0.85;;
35977;SDS011;22056;0.000;0.000;2022-12-18T03:43:20;0.80;;;0.80;;
35977;SDS011;22056;0.000;0.000;2022-12-18T03:49:02;1.42;;;1.05;;
35977;SDS011;22056;0.000;0.000;2022-12-18T03:54:03;1.10;;;1.00;;
35977;SDS011;22056;0.000;0.000;2022-12-18T03:56:31;1.17;;;0.82;;
35977;SDS011;22056;0.000;0.000;2022-12-18T03:58:59;1.00;;;0.90;;
35977;SDS011;22056;0.000;0.000;2022-12-18T04:01:29;0.82;;;0.80;;
35977;SDS011;22056;0.000;0.000;2022-12-18T04:03:57;1.10;;;0.90;;
35977;SDS011;22056;0.000;0.000;2022-12-18T04:06:25;0.70;;;0.70;;
35977;SDS011;22056;0.000;0.000;2022-12-18T04:08:51;0.88;;;0.77;;
35977;SDS011;22056;0.000;0.000;2022-12-18T04:11:18;1.05;;;0.93;;
35977;SDS011;22056;0.000;0.000;2022-12-18T04:13:44;0.95;;;0.90;;
35977;SDS011;22056;0.000;0.000;2022-12-18T04:16:10;0.77;;;0.77;;
35977;SDS011;22056;0.000;0.000;2022-12-18T04:18:36;0.60;;;0.60;;
35977;SDS011;22056;0.000;0.000;2022-12-18T04:21:03;0.90;;;0.70;;
35977;SDS011;22056;0.000;0.000;2022-12-18T04:23:29;0.80;;;0.70;;
35977;SDS011;22056;0.000;0.000;2022-12-18T04:25:55;0.73;;;0.73;;
35977;SDS011;22056;0.000;0.000;2022-12-18T04:28:21;1.00;;;0.90;;
35977;SDS011;22056;0.000;0.000;2022-12-18T04:30:47;0.77;;;0.77;;
35977;SDS011;22056;0.000;0.000;2022-12-18T04:33:14;0.90;;;0.60;;
35977;SDS011;22056;0.000;0.000;2022-12-18T04:35:40;0.93;;;0.88;;
35977;SDS011;22056;0.000;0.000;2022-12-18T04:38:07;0.73;;;0.70;;
35977;SDS011;22056;0.000;0.000;2022-12-18T04:40:34;0.70;;;0.68;;
35977;SDS011;22056;0.000;0.000;2022-12-18T04:43:00;1.02;;;0.82;;
35977;SDS011;22056;0.000;0.000;2022-12-18T04:45:26;0.77;;;0.70;;
35977;SDS011;22056;0.000;0.000;2022-12-18T04:47:52;0.70;;;0.60;;
35977;SDS011;22056;0.000;0.000;2022-12-18T04:50:18;1.90;;;1.00;;
35977;SDS011;22056;0.000;0.000;2022-12-18T04:52:45;1.00;;;0.90;;
35977;SDS011;22056;0.000;0.000;2022-12-18T04:55:11;0.90;;;0.73;;
35977;SDS011;22056;0.000;0.000;2022-12-18T04:57:37;0.65;;;0.65;;
35977;SDS011;22056;0.000;0.000;2022-12-18T05:00:03;0.82;;;0.70;;
35977;SDS011;22056;0.000;0.000;2022-12-18T05:02:31;1.20;;;0.90;;
35977;SDS011;22056;0.000;0.000;2022-12-18T05:04:57;0.98;;;0.88;;
35977;SDS011;22056;0.000;0.000;2022-12-18T05:07:23;0.73;;;0.70;;
35977;SDS011;22056;0.000;0.000;2022-12-18T05:09:50;1.00;;;0.90;;
35977;SDS011;22056;0.000;0.000;2022-12-18T05:12:16;1.05;;;0.90;;
35977;SDS011;22056;0.000;0.000;2022-12-18T05:14:42;0.85;;;0.75;;
35977;SDS011;22056;0.000;0.000;2022-12-18T05:17:08;0.95;;;0.90;;
35977;SDS011;22056;0.000;0.000;2022-12-18T05:19:34;0.77;;;0.77;;
35977;SDS011;22056;0.000;0.000;2022-12-18T05:22:00;0.70;;;0.70;;
35977;SDS011;22056;0.000;0.000;2022-12-18T05:24:27;0.90;;;0.70;;
35977;SDS011;22056;0.000;0.000;2022-12-18T05:26:53;0.73;;;0.68;;
35977;SDS011;22056;0.000;0.000;2022-12-18T05:29:19;0.98;;;0.88;;
35977;SDS011;22056;0.000;0.000;2022-12-18T05:31:45;0.77;;;0.70;;
35977;SDS011;22056;0.000;0.000;2022-12-18T05:34:11;0.85;;;0.85;;
35977;SDS011;22056;0.000;0.000;2022-12-18T05:36:38;0.93;;;0.73;;
35977;SDS011;22056;0.000;0.000;2022-12-18T05:39:04;0.70;;;0.70;;
35977;SDS011;22056;0.000;0.000;2022-12-18T05:41:31;0.75;;;0.70;;
35977;SDS011;22056;0.000;0.000;2022-12-18T05:43:57;0.90;;;0.70;;
35977;SDS011;22056;0.000;0.000;2022-12-18T05:46:24;1.10;;;0.88;;
35977;SDS011;22056;0.000;0.000;2022-12-18T05:48:50;0.70;;;0.70;;
35977;SDS011;22056;0.000;0.000;2022-12-18T05:51:18;0.77;;;0.50;;
35977;SDS011;22056;0.000;0.000;2022-12-18T05:53:44;1.77;;;0.65;;
35977;SDS011;22056;0.000;0.000;2022-12-18T05:56:13;0.82;;;0.80;;
35977;SDS011;22056;0.000;0.000;2022-12-18T05:58:40;0.70;;;0.70;;
35977;SDS011;22056;0.000;0.000;2022-12-18T06:01:25;0.75;;;0.73;;
35977;SDS011;22056;0.000;0.000;2022-12-18T06:03:51;0.75;;;0.75;;
35977;SDS011;22056;0.000;0.000;2022-12-18T06:06:22;0.70;;;0.70;;
35977;SDS011;22056;0.000;0.000;2022-12-18T06:08:49;0.60;;;0.60;;
35977;SDS011;22056;0.000;0.000;2022-12-18T06:11:16;0.85;;;0.80;;
35977;SDS011;22056;0.000;0.000;2022-12-18T06:13:42;0.73;;;0.73;;
35977;SDS011;22056;0.000;0.000;2022-12-18T06:16:08;0.70;;;0.65;;
35977;SDS011;22056;0.000;0.000;2022-12-18T06:18:35;0.80;;;0.63;;
35977;SDS011;22056;0.000;0.000;2022-12-18T06:21:01;1.08;;;0.80;;
35977;SDS011;22056;0.000;0.000;2022-12-18T06:23:27;0.50;;;0.50;;
35977;SDS011;22056;0.000;0.000;2022-12-18T06:25:54;0.50;;;0.50;;
35977;SDS011;22056;0.000;0.000;2022-12-18T06:28:20;0.70;;;0.65;;
35977;SDS011;22056;0.000;0.000;2022-12-18T06:30:46;0.60;;;0.60;;
35977;SDS011;22056;0.000;0.000;2022-12-18T06:33:13;1.00;;;0.70;;
35977;SDS011;22056;0.000;0.000;2022-12-18T06:35:40;0.55;;;0.55;;
35977;SDS011;22056;0.000;0.000;2022-12-18T06:38:06;0.88;;;0.80;;
35977;SDS011;22056;0.000;0.000;2022-12-18T06:40:33;0.90;;;0.75;;
35977;SDS011;22056;0.000;0.000;2022-12-18T06:42:59;0.70;;;0.70;;
35977;SDS011;22056;0.000;0.000;2022-12-18T06:45:25;0.70;;;0.70;;
35977;SDS011;22056;0.000;0.000;2022-12-18T06:47:51;1.05;;;0.82;;
35977;SDS011;22056;0.000;0.000;2022-12-18T06:50:18;1.00;;;0.70;;
35977;SDS011;22056;0.000;0.000;2022-12-18T06:52:44;0.68;;;0.65;;
35977;SDS011;22056;0.000;0.000;2022-12-18T06:55:10;0.50;;;0.50;;
35977;SDS011;22056;0.000;0.000;2022-12-18T06:57:37;0.70;;;0.60;;
35977;SDS011;22056;0.000;0.000;2022-12-18T07:00:04;0.70;;;0.70;;
35977;SDS011;22056;0.000;0.000;2022-12-18T07:02:31;1.00;;;0.90;;
35977;SDS011;22056;0.000;0.000;2022-12-18T07:04:57;0.70;;;0.70;;
35977;SDS011;22056;0.000;0.000;2022-12-18T07:07:24;0.73;;;0.70;;
35977;SDS011;22056;0.000;0.000;2022-12-18T07:09:50;0.70;;;0.70;;
35977;SDS011;22056;0.000;0.000;2022-12-18T07:12:17;0.93;;;0.90;;
35977;SDS011;22056;0.000;0.000;2022-12-18T07:14:43;0.73;;;0.70;;
35977;SDS011;22056;0.000;0.000;2022-12-18T07:17:09;0.68;;;0.60;;
35977;SDS011;22056;0.000;0.000;2022-12-18T07:19:35;0.88;;;0.70;;
35977;SDS011;22056;0.000;0.000;2022-12-18T07:22:01;0.63;;;0.60;;
35977;SDS011;22056;0.000;0.000;2022-12-18T07:24:28;0.68;;;0.57;;
35977;SDS011;22056;0.000;0.000;2022-12-18T07:26:54;1.25;;;0.80;;
35977;SDS011;22056;0.000;0.000;2022-12-18T07:29:20;0.75;;;0.57;;
35977;SDS011;22056;0.000;0.000;2022-12-18T07:31:46;0.70;;;0.65;;
35977;SDS011;22056;0.000;0.000;2022-12-18T07:34:13;0.80;;;0.70;;
35977;SDS011;22056;0.000;0.000;2022-12-18T07:36:40;0.85;;;0.70;;
35977;SDS011;22056;0.000;0.000;2022-12-18T07:39:06;0.68;;;0.60;;
35977;SDS011;22056;0.000;0.000;2022-12-18T07:41:33;0.80;;;0.68;;
35977;SDS011;22056;0.000;0.000;2022-12-18T07:43:59;1.00;;;0.75;;
35977;SDS011;22056;0.000;0.000;2022-12-18T07:46:25;1.27;;;0.68;;
35977;SDS011;22056;0.000;0.000;2022-12-18T07:48:51;0.63;;;0.60;;
35977;SDS011;22056;0.000;0.000;2022-12-18T07:51:18;0.82;;;0.52;;
35977;SDS011;22056;0.000;0.000;2022-12-18T07:53:44;0.63;;;0.60;;
35977;SDS011;22056;0.000;0.000;2022-12-18T07:56:11;0.60;;;0.60;;
35977;SDS011;22056;0.000;0.000;2022-12-18T07:58:38;0.60;;;0.60;;
35977;SDS011;22056;0.000;0.000;2022-12-18T08:01:06;0.50;;;0.50;;
35977;SDS011;22056;0.000;0.000;2022-12-18T08:03:33;0.60;;;0.60;;
35977;SDS011;22056;0.000;0.000;2022-12-18T08:06:02;0.50;;;0.50;;
35977;SDS011;22056;0.000;0.000;2022-12-18T08:08:29;0.40;;;0.40;;
35977;SDS011;22056;0.000;0.000;2022-12-18T08:10:58;0.65;;;0.65;;
35977;SDS011;22056;0.000;0.000;2022-12-18T08:13:24;0.52;;;0.52;;
35977;SDS011;22056;0.000;0.000;2022-12-18T08:18:23;0.63;;;0.57;;
35977;SDS011;22056;0.000;0.000;2022-12-18T08:20:49;0.70;;;0.60;;
35977;SDS011;22056;0.000;0.000;2022-12-18T08:23:15;0.68;;;0.47;;
35977;SDS011;22056;0.000;0.000;2022-12-18T08:25:42;0.50;;;0.50;;
35977;SDS011;22056;0.000;0.000;2022-12-18T08:28:09;0.98;;;0.60;;
35977;SDS011;22056;0.000;0.000;2022-12-18T08:30:35;0.60;;;0.60;;
35977;SDS011;22056;0.000;0.000;2022-12-18T08:33:02;0.68;;;0.60;;
35977;SDS011;22056;0.000;0.000;2022-12-18T08:35:28;0.50;;;0.50;;
35977;SDS011;22056;0.000;0.000;2022-12-18T08:37:54;0.75;;;0.40;;
35977;SDS011;22056;0.000;0.000;2022-12-18T08:40:20;0.70;;;0.70;;
35977;SDS011;22056;0.000;0.000;2022-12-18T08:42:47;0.50;;;0.50;;
35977;SDS011;22056;0.000;0.000;2022-12-18T08:45:34;0.60;;;0.60;;
35977;SDS011;22056;0.000;0.000;2022-12-18T08:48:00;0.77;;;0.60;;
35977;SDS011;22056;0.000;0.000;2022-12-18T08:50:27;0.90;;;0.60;;
35977;SDS011;22056;0.000;0.000;2022-12-18T08:52:53;0.50;;;0.50;;
35977;SDS011;22056;0.000;0.000;2022-12-18T08:55:19;0.60;;;0.40;;
35977;SDS011;22056;0.000;0.000;2022-12-18T08:57:47;0.60;;;0.52;;
35977;SDS011;22056;0.000;0.000;2022-12-18T09:00:14;0.52;;;0.52;;
35977;SDS011;22056;0.000;0.000;2022-12-18T09:02:41;0.68;;;0.60;;
35977;SDS011;22056;0.000;0.000;2022-12-18T09:05:07;0.60;;;0.60;;
35977;SDS011;22056;0.000;0.000;2022-12-18T09:07:33;0.70;;;0.70;;
35977;SDS011;22056;0.000;0.000;2022-12-18T09:10:00;0.70;;;0.60;;
35977;SDS011;22056;0.000;0.000;2022-12-18T09:12:26;0.50;;;0.50;;
35977;SDS011;22056;0.000;0.000;2022-12-18T09:14:52;0.60;;;0.60;;
35977;SDS011;22056;0.000;0.000;2022-12-18T09:17:18;0.60;;;0.60;;
35977;SDS011;22056;0.000;0.000;2022-12-18T09:19:44;0.68;;;0.50;;
35977;SDS011;22056;0.000;0.000;2022-12-18T09:22:11;0.65;;;0.65;;
35977;SDS011;22056;0.000;0.000;2022-12-18T09:24:37;0.90;;;0.70;;
35977;SDS011;22056;0.000;0.000;2022-12-18T09:27:03;0.60;;;0.60;;
35977;SDS011;22056;0.000;0.000;2022-12-18T09:29:29;0.68;;;0.57;;
35977;SDS011;22056;0.000;0.000;2022-12-18T09:31:56;0.57;;;0.52;;
35977;SDS011;22056;0.000;0.000;2022-12-18T09:34:22;0.70;;;0.60;;
35977;SDS011;22056;0.000;0.000;2022-12-18T09:36:48;0.57;;;0.57;;
35977;SDS011;22056;0.000;0.000;2022-12-18T09:39:14;0.80;;;0.70;;
35977;SDS011;22056;0.000;0.000;2022-12-18T09:44:24;0.88;;;0.80;;
35977;SDS011;22056;0.000;0.000;2022-12-18T09:46:58;0.82;;;0.70;;
35977;SDS011;22056;0.000;0.000;2022-12-18T09:49:29;0.60;;;0.57;;
35977;SDS011;22056;0.000;0.000;2022-12-18T09:52:19;0.50;;;0.50;;
35977;SDS011;22056;0.000;0.000;2022-12-18T09:55:05;0.50;;;0.50;;
35977;SDS011;22056;0.000;0.000;2022-12-18T09:57:29;0.80;;;0.60;;
35977;SDS011;22056;0.000;0.000;2022-12-18T09:59:59;0.60;;;0.60;;
35977;SDS011;22056;0.000;0.000;2022-12-18T10:02:30;0.50;;;0.50;;
35977;SDS011;22056;0.000;0.000;2022-12-18T10:05:04;0.55;;;0.50;;
35977;SDS011;22056;0.000;0.000;2022-12-18T10:07:38;0.57;;;0.50;;
35977;SDS011;22056;0.000;0.000;2022-12-18T10:10:21;0.50;;;0.50;;
35977;SDS011;22056;0.000;0.000;2022-12-18T10:17:50;0.68;;;0.60;;
35977;SDS011;22056;0.000;0.000;2022-12-18T10:22:47;0.80;;;0.70;;
35977;SDS011;22056;0.000;0.000;2022-12-18T10:27:43;0.55;;;0.50;;
35977;SDS011;22056;0.000;0.000;2022-12-18T10:30:13;0.70;;;0.65;;
35977;SDS011;22056;0.000;0.000;2022-12-18T10:32:40;0.85;;;0.63;;
35977;SDS011;22056;0.000;0.000;2022-12-18T10:35:07;0.50;;;0.47;;
35977;SDS011;22056;0.000;0.000;2022-12-18T10:37:37;0.70;;;0.65;;
35977;SDS011;22056;0.000;0.000;2022-12-18T10:40:23;0.68;;;0.60;;
35977;SDS011;22056;0.000;0.000;2022-12-18T10:43:09;0.60;;;0.50;;
35977;SDS011;22056;0.000;0.000;2022-12-18T10:45:36;0.70;;;0.60;;
35977;SDS011;22056;0.000;0.000;2022-12-18T10:48:03;0.73;;;0.57;;
35977;SDS011;22056;0.000;0.000;2022-12-18T10:50:33;0.60;;;0.60;;
35977;SDS011;22056;0.000;0.000;2022-12-18T10:53:00;0.88;;;0.70;;
35977;SDS011;22056;0.000;0.000;2022-12-18T10:55:34;0.60;;;0.60;;
35977;SDS011;22056;0.000;0.000;2022-12-18T11:01:01;1.00;;;0.63;;
35977;SDS011;22056;0.000;0.000;2022-12-18T11:03:35;0.60;;;0.60;;
35977;SDS011;22056;0.000;0.000;2022-12-18T11:06:05;0.57;;;0.52;;
35977;SDS011;22056;0.000;0.000;2022-12-18T11:08:32;0.70;;;0.60;;
35977;SDS011;22056;0.000;0.000;2022-12-18T11:10:58;0.55;;;0.55;;
35977;SDS011;22056;0.000;0.000;2022-12-18T11:13:25;0.60;;;0.60;;
35977;SDS011;22056;0.000;0.000;2022-12-18T11:15:51;0.85;;;0.70;;
35977;SDS011;22056;0.000;0.000;2022-12-18T11:20:55;0.80;;;0.70;;
35977;SDS011;22056;0.000;0.000;2022-12-18T11:23:22;0.63;;;0.55;;
35977;SDS011;22056;0.000;0.000;2022-12-18T11:25:56;1.08;;;0.70;;
35977;SDS011;22056;0.000;0.000;2022-12-18T11:33:37;1.05;;;0.80;;
35977;SDS011;22056;0.000;0.000;2022-12-18T11:36:03;0.68;;;0.68;;
35977;SDS011;22056;0.000;0.000;2022-12-18T11:38:39;0.50;;;0.50;;
35977;SDS011;22056;0.000;0.000;2022-12-18T11:43:50;0.93;;;0.70;;
35977;SDS011;22056;0.000;0.000;2022-12-18T11:46:34;0.70;;;0.70;;
35977;SDS011;22056;0.000;0.000;2022-12-18T11:49:17;0.73;;;0.70;;
35977;SDS011;22056;0.000;0.000;2022-12-18T11:54:14;0.60;;;0.50;;
35977;SDS011;22056;0.000;0.000;2022-12-18T11:56:48;0.57;;;0.57;;
35977;SDS011;22056;0.000;0.000;2022-12-18T12:09:19;0.63;;;0.60;;
35977;SDS011;22056;0.000;0.000;2022-12-18T12:12:09;0.90;;;0.60;;
35977;SDS011;22056;0.000;0.000;2022-12-18T12:20:08;0.68;;;0.60;;
35977;SDS011;22056;0.000;0.000;2022-12-18T12:33:42;0.40;;;0.40;;
35977;SDS011;22056;0.000;0.000;2022-12-18T12:38:48;0.47;;;0.47;;
35977;SDS011;22056;0.000;0.000;2022-12-18T12:41:16;0.60;;;0.52;;
35977;SDS011;22056;0.000;0.000;2022-12-18T12:44:02;0.50;;;0.40;;
35977;SDS011;22056;0.000;0.000;2022-12-18T12:46:31;0.63;;;0.50;;
35977;SDS011;22056;0.000;0.000;2022-12-18T12:48:59;0.60;;;0.60;;
35977;SDS011;22056;0.000;0.000;2022-12-18T12:51:34;0.65;;;0.50;;
35977;SDS011;22056;0.000;0.000;2022-12-18T12:54:01;0.57;;;0.50;;
35977;SDS011;22056;0.000;0.000;2022-12-18T12:57:02;0.82;;;0.60;;
35977;SDS011;22056;0.000;0.000;2022-12-18T12:59:34;0.60;;;0.60;;
35977;SDS011;22056;0.000;0.000;2022-12-18T13:07:28;0.50;;;0.50;;
35977;SDS011;22056;0.000;0.000;2022-12-18T13:15:43;0.52;;;0.40;;
35977;SDS011;22056;0.000;0.000;2022-12-18T13:20:36;0.55;;;0.50;;
35977;SDS011;22056;0.000;0.000;2022-12-18T13:25:52;0.50;;;0.50;;
35977;SDS011;22056;0.000;0.000;2022-12-18T13:28:23;0.65;;;0.60;;
35977;SDS011;22056;0.000;0.000;2022-12-18T13:30:54;0.50;;;0.50;;
35977;SDS011;22056;0.000;0.000;2022-12-18T13:38:22;0.50;;;0.50;;
35977;SDS011;22056;0.000;0.000;2022-12-18T13:46:00;0.75;;;0.60;;
35977;SDS011;22056;0.000;0.000;2022-12-18T13:48:27;0.43;;;0.43;;
35977;SDS011;22056;0.000;0.000;2022-12-18T13:50:56;0.40;;;0.40;;
35977;SDS011;22056;0.000;0.000;2022-12-18T13:53:28;0.52;;;0.52;;
35977;SDS011;22056;0.000;0.000;2022-12-18T13:55:55;0.80;;;0.70;;
35977;SDS011;22056;0.000;0.000;2022-12-18T13:58:22;0.55;;;0.50;;
35977;SDS011;22056;0.000;0.000;2022-12-18T14:00:48;0.60;;;0.50;;
35977;SDS011;22056;0.000;0.000;2022-12-18T14:03:16;0.70;;;0.50;;
35977;SDS011;22056;0.000;0.000;2022-12-18T14:05:43;0.80;;;0.70;;
35977;SDS011;22056;0.000;0.000;2022-12-18T14:08:12;0.60;;;0.60;;
35977;SDS011;22056;0.000;0.000;2022-12-18T14:10:43;0.70;;;0.70;;
35977;SDS011;22056;0.000;0.000;2022-12-18T14:13:10;0.50;;;0.50;;
35977;SDS011;22056;0.000;0.000;2022-12-18T14:15:41;0.50;;;0.50;;
35977;SDS011;22056;0.000;0.000;2022-12-18T14:20:57;0.70;;;0.55;;
35977;SDS011;22056;0.000;0.000;2022-12-18T14:23:28;0.60;;;0.50;;
35977;SDS011;22056;0.000;0.000;2022-12-18T14:25:54;0.60;;;0.60;;
35977;SDS011;22056;0.000;0.000;2022-12-18T14:28:20;0.60;;;0.60;;
35977;SDS011;22056;0.000;0.000;2022-12-18T14:30:47;0.50;;;0.47;;
35977;SDS011;22056;0.000;0.000;2022-12-18T14:33:15;0.63;;;0.63;;
35977;SDS011;22056;0.000;0.000;2022-12-18T14:35:51;0.70;;;0.70;;
35977;SDS011;22056;0.000;0.000;2022-12-18T14:38:22;1.02;;;0.60;;
35977;SDS011;22056;0.000;0.000;2022-12-18T14:40:52;0.60;;;0.60;;
35977;SDS011;22056;0.000;0.000;2022-12-18T14:43:19;0.70;;;0.70;;
35977;SDS011;22056;0.000;0.000;2022-12-18T14:45:45;0.98;;;0.82;;
35977;SDS011;22056;0.000;0.000;2022-12-18T14:50:38;0.93;;;0.82;;
35977;SDS011;22056;0.000;0.000;2022-12-18T14:53:17;0.70;;;0.63;;
35977;SDS011;22056;0.000;0.000;2022-12-18T14:55:45;0.85;;;0.68;;
35977;SDS011;22056;0.000;0.000;2022-12-18T14:58:12;0.90;;;0.60;;
35977;SDS011;22056;0.000;0.000;2022-12-18T15:00:41;0.70;;;0.70;;
35977;SDS011;22056;0.000;0.000;2022-12-18T15:03:07;0.80;;;0.73;;
35977;SDS011;22056;0.000;0.000;2022-12-18T15:05:34;0.90;;;0.68;;
35977;SDS011;22056;0.000;0.000;2022-12-18T15:08:00;0.80;;;0.70;;
35977;SDS011;22056;0.000;0.000;2022-12-18T15:10:28;0.55;;;0.55;;
35977;SDS011;22056;0.000;0.000;2022-12-18T15:20:30;0.80;;;0.60;;
35977;SDS011;22056;0.000;0.000;2022-12-18T15:22:57;0.60;;;0.60;;
35977;SDS011;22056;0.000;0.000;2022-12-18T15:25:34;0.68;;;0.50;;
35977;SDS011;22056;0.000;0.000;2022-12-18T15:28:02;0.65;;;0.60;;
35977;SDS011;22056;0.000;0.000;2022-12-18T15:30:29;0.47;;;0.47;;
35977;SDS011;22056;0.000;0.000;2022-12-18T15:35:41;0.93;;;0.60;;
35977;SDS011;22056;0.000;0.000;2022-12-18T15:38:07;0.80;;;0.80;;
35977;SDS011;22056;0.000;0.000;2022-12-18T15:40:33;0.60;;;0.60;;
35977;SDS011;22056;0.000;0.000;2022-12-18T15:42:59;0.68;;;0.60;;
35977;SDS011;22056;0.000;0.000;2022-12-18T15:45:44;0.75;;;0.60;;
35977;SDS011;22056;0.000;0.000;2022-12-18T15:48:20;0.50;;;0.50;;
35977;SDS011;22056;0.000;0.000;2022-12-18T15:50:47;0.50;;;0.50;;
35977;SDS011;22056;0.000;0.000;2022-12-18T15:53:14;0.65;;;0.60;;
35977;SDS011;22056;0.000;0.000;2022-12-18T15:55:40;0.50;;;0.50;;
35977;SDS011;22056;0.000;0.000;2022-12-18T15:58:25;0.60;;;0.60;;
35977;SDS011;22056;0.000;0.000;2022-12-18T16:00:51;0.88;;;0.50;;
35977;SDS011;22056;0.000;0.000;2022-12-18T16:03:17;0.95;;;0.70;;
35977;SDS011;22056;0.000;0.000;2022-12-18T16:05:43;0.40;;;0.40;;
35977;SDS011;22056;0.000;0.000;2022-12-18T16:08:09;0.45;;;0.45;;
35977;SDS011;22056;0.000;0.000;2022-12-18T16:10:35;0.70;;;0.50;;
35977;SDS011;22056;0.000;0.000;2022-12-18T16:13:02;0.73;;;0.65;;
35977;SDS011;22056;0.000;0.000;2022-12-18T16:15:28;0.75;;;0.60;;
35977;SDS011;22056;0.000;0.000;2022-12-18T16:17:54;0.52;;;0.52;;
35977;SDS011;22056;0.000;0.000;2022-12-18T16:20:21;0.60;;;0.57;;
35977;SDS011;22056;0.000;0.000;2022-12-18T16:22:47;0.45;;;0.45;;
35977;SDS011;22056;0.000;0.000;2022-12-18T16:25:21;0.52;;;0.50;;
35977;SDS011;22056;0.000;0.000;2022-12-18T16:27:48;0.70;;;0.65;;
35977;SDS011;22056;0.000;0.000;2022-12-18T16:30:15;0.88;;;0.65;;
35977;SDS011;22056;0.000;0.000;2022-12-18T16:32:42;0.95;;;0.65;;
35977;SDS011;22056;0.000;0.000;2022-12-18T16:35:09;0.60;;;0.50;;
35977;SDS011;22056;0.000;0.000;2022-12-18T16:37:36;0.65;;;0.65;;
35977;SDS011;22056;0.000;0.000;2022-12-18T16:40:02;0.80;;;0.60;;
35977;SDS011;22056;0.000;0.000;2022-12-18T16:42:29;0.50;;;0.50;;
35977;SDS011;22056;0.000;0.000;2022-12-18T16:44:55;0.90;;;0.60;;
35977;SDS011;22056;0.000;0.000;2022-12-18T16:47:21;0.47;;;0.40;;
35977;SDS011;22056;0.000;0.000;2022-12-18T16:49:47;0.63;;;0.60;;
35977;SDS011;22056;0.000;0.000;2022-12-18T16:52:18;0.70;;;0.60;;
35977;SDS011;22056;0.000;0.000;2022-12-18T16:54:44;0.57;;;0.57;;
35977;SDS011;22056;0.000;0.000;2022-12-18T16:57:14;0.60;;;0.60;;
35977;SDS011;22056;0.000;0.000;2022-12-18T16:59:41;0.50;;;0.50;;
35977;SDS011;22056;0.000;0.000;2022-12-18T17:02:17;0.50;;;0.50;;
35977;SDS011;22056;0.000;0.000;2022-12-18T17:04:44;0.88;;;0.70;;
35977;SDS011;22056;0.000;0.000;2022-12-18T17:07:10;0.40;;;0.40;;
35977;SDS011;22056;0.000;0.000;2022-12-18T17:09:37;0.68;;;0.50;;
35977;SDS011;22056;0.000;0.000;2022-12-18T17:12:03;0.55;;;0.47;;